Time;durP1;ratioP1;P1;durP2;ratioP2;P2;SDS_P1;SDS_P2;PMS_P1;PMS_P2;Temp;Humidity;BMP_temperature;BMP_pressure;BME280_temperature;BME280_humidity;BME280_pressure;Samples;Min_cycle;Max_cycle;Signal;HPM_P1;HPM_P2
2023/06/26 00:02:40;;;;;;;;;;;;;;;18.69;91.75;99833.28;6374418;27;19919;-71
2023/06/26 00:05:41;;;;;;;;;;;;;;;18.68;90.40;99834.28;6375814;27;19942;-71
2023/06/26 00:08:43;;;;;;;;;;;;;;;18.65;90.98;99839.84;6374373;27;19968;-71
2023/06/26 00:11:44;;;;;;;;;;;;;;;18.70;91.06;99828.84;6375579;27;20394;-72
2023/06/26 00:14:46;;;;;;;;;;;;;;;18.62;91.12;99840.16;6374372;27;19924;-71
2023/06/26 00:17:47;;;;;;;;;;;;;;;18.73;91.89;99833.81;6374504;27;19927;-71
2023/06/26 00:20:48;;;;;;;;;;;;;;;18.56;92.79;99838.13;6373444;27;19919;-72
2023/06/26 00:23:48;;;;;;;;;;;;;;;18.47;92.73;99825.81;6375133;27;19946;-72
2023/06/26 00:26:49;;;;;;;;;;;;;;;18.53;91.02;99830.50;6374024;27;19968;-71
2023/06/26 00:29:52;;;;;;;;;;;;;;;18.58;90.96;99828.25;6375107;27;19923;-71
2023/06/26 00:32:53;;;;;;;;;;;;;;;18.52;90.19;99826.19;6375217;27;19919;-71
2023/06/26 00:35:53;;;;;;;;;;;;;;;18.56;91.18;99816.16;6375038;27;19977;-71
2023/06/26 00:38:54;;;;;;;;;;;;;;;18.65;89.68;99815.25;6373934;27;19919;-72
2023/06/26 00:41:55;;;;;;;;;;;;;;;18.69;90.74;99806.03;6373855;27;19925;-71
2023/06/26 00:44:55;;;;;;;;;;;;;;;18.55;89.69;99814.50;6374992;27;19926;-72
2023/06/26 00:47:56;;;;;;;;;;;;;;;18.49;88.66;99815.91;6373486;27;19919;-71
2023/06/26 00:50:57;;;;;;;;;;;;;;;18.58;89.96;99809.75;6373344;27;20394;-71
2023/06/26 00:53:57;;;;;;;;;;;;;;;18.36;89.57;99815.47;6373197;27;19926;-71
2023/06/26 00:56:58;;;;;;;;;;;;;;;18.43;89.35;99812.09;6374409;27;20366;-71
2023/06/26 01:00:03;;;;;;;;;;;;;;;18.37;89.59;99820.63;6373489;27;20291;-71
2023/06/26 01:03:04;;;;;;;;;;;;;;;18.40;89.95;99814.19;6374285;27;19980;-71
2023/06/26 01:06:05;;;;;;;;;;;;;;;18.37;89.87;99819.78;6374171;27;20329;-71
2023/06/26 01:09:06;;;;;;;;;;;;;;;18.39;89.90;99812.53;6373012;27;19919;-72
2023/06/26 01:12:06;;;;;;;;;;;;;;;18.35;89.72;99817.28;6372921;27;19919;-71
2023/06/26 01:15:07;;;;;;;;;;;;;;;18.29;91.20;99812.59;6372867;27;20484;-71
2023/06/26 01:18:08;;;;;;;;;;;;;;;18.25;90.77;99813.88;6374465;27;19919;-72
2023/06/26 01:21:09;;;;;;;;;;;;;;;18.15;91.77;99813.94;6372866;27;20018;-71
2023/06/26 01:24:27;;;;;;;;;;;;;;;18.19;91.32;99817.13;6372514;27;20329;-70
2023/06/26 01:27:32;;;;;;;;;;;;;;;18.19;91.99;99809.19;6373923;27;19926;-71
2023/06/26 01:30:33;;;;;;;;;;;;;;;18.19;92.58;99810.03;6373582;27;20335;-71
2023/06/26 01:33:34;;;;;;;;;;;;;;;18.24;93.27;99817.50;6373498;27;19926;-71
2023/06/26 01:36:37;;;;;;;;;;;;;;;18.12;93.82;99807.16;6372293;27;20290;-71
2023/06/26 01:39:37;;;;;;;;;;;;;;;18.06;94.54;99809.56;6372537;27;19919;-71
2023/06/26 01:42:40;;;;;;;;;;;;;;;18.06;95.67;99805.09;6372204;27;20007;-71
2023/06/26 01:45:42;;;;;;;;;;;;;;;18.17;96.04;99804.06;6372134;27;19996;-71
2023/06/26 01:49:03;;;;;;;;;;;;;;;18.08;99.27;99804.97;6371782;27;20373;-72
2023/06/26 01:52:06;;;;;;;;;;;;;;;18.07;99.05;99803.28;6372058;27;20428;-71
2023/06/26 01:55:15;;;;;;;;;;;;;;;18.00;98.66;99804.88;6373129;27;19930;-71
2023/06/26 01:58:17;;;;;;;;;;;;;;;17.95;97.50;99804.47;6371995;27;20402;-71
2023/06/26 02:01:18;;;;;;;;;;;;;;;17.92;97.42;99798.50;6373042;27;20371;-71
2023/06/26 02:04:18;;;;;;;;;;;;;;;17.85;98.56;99793.94;6373225;27;19923;-71
2023/06/26 02:07:19;;;;;;;;;;;;;;;17.83;97.82;99794.13;6371832;27;19919;-71
2023/06/26 02:10:19;;;;;;;;;;;;;;;17.85;99.09;99793.94;6373185;27;19923;-72
2023/06/26 02:13:20;;;;;;;;;;;;;;;17.86;99.58;99803.53;6371742;27;19920;-71
2023/06/26 02:16:20;;;;;;;;;;;;;;;17.91;99.60;99798.63;6371495;27;19919;-72
2023/06/26 02:19:21;;;;;;;;;;;;;;;17.82;100.00;99800.31;6371736;28;20410;-71
2023/06/26 02:22:22;;;;;;;;;;;;;;;17.70;100.00;99802.31;6372664;28;19919;-71
2023/06/26 02:25:22;;;;;;;;;;;;;;;17.62;99.70;99804.03;6372823;27;19971;-71
2023/06/26 02:28:23;;;;;;;;;;;;;;;17.51;100.00;99805.03;6372666;28;19919;-71
2023/06/26 02:31:23;;;;;;;;;;;;;;;17.59;100.00;99799.06;6372927;27;20294;-71
2023/06/26 02:34:24;;;;;;;;;;;;;;;17.65;100.00;99807.22;6371322;28;19958;-71
2023/06/26 02:37:24;;;;;;;;;;;;;;;17.69;100.00;99800.66;6372908;27;19927;-70
2023/06/26 02:40:25;;;;;;;;;;;;;;;17.64;100.00;99807.34;6372727;27;20290;-71
2023/06/26 02:43:25;;;;;;;;;;;;;;;17.68;100.00;99809.53;6374524;27;20286;-71
2023/06/26 02:46:26;;;;;;;;;;;;;;;17.67;100.00;99807.91;6376490;27;20377;-71
2023/06/26 02:49:29;;;;;;;;;;;;;;;17.64;100.00;99813.44;6376166;27;19941;-71
2023/06/26 02:52:30;;;;;;;;;;;;;;;17.46;100.00;99805.47;6377718;27;19923;-72
2023/06/26 02:55:30;;;;;;;;;;;;;;;17.52;100.00;99811.97;6377328;27;19926;-71
2023/06/26 02:58:33;;;;;;;;;;;;;;;17.64;100.00;99808.19;6376153;27;19919;-71
2023/06/26 03:01:34;;;;;;;;;;;;;;;17.37;100.00;99810.78;6377161;27;20371;-71
2023/06/26 03:04:36;;;;;;;;;;;;;;;17.39;100.00;99812.28;6376222;27;19919;-71
2023/06/26 03:07:39;;;;;;;;;;;;;;;17.30;100.00;99811.34;6377120;27;19919;-71
2023/06/26 03:10:39;;;;;;;;;;;;;;;17.31;100.00;99813.00;6377331;27;19933;-71
2023/06/26 03:13:40;;;;;;;;;;;;;;;17.43;100.00;99810.22;6375879;27;19923;-71
2023/06/26 03:16:40;;;;;;;;;;;;;;;17.43;100.00;99807.56;6375603;27;20276;-71
2023/06/26 03:19:41;;;;;;;;;;;;;;;17.45;100.00;99808.25;6375851;27;19923;-71
2023/06/26 03:22:42;;;;;;;;;;;;;;;17.44;100.00;99806.59;6375459;27;19926;-71
2023/06/26 03:25:42;;;;;;;;;;;;;;;17.40;100.00;99803.44;6376829;27;20453;-72
2023/06/26 03:28:43;;;;;;;;;;;;;;;17.53;100.00;99813.66;6375404;27;19930;-71
2023/06/26 03:31:43;;;;;;;;;;;;;;;17.43;100.00;99810.22;6375434;27;19923;-71
2023/06/26 03:34:46;;;;;;;;;;;;;;;17.59;100.00;99806.97;6375153;27;19923;-71
2023/06/26 03:37:47;;;;;;;;;;;;;;;17.59;100.00;99806.97;6375413;27;19919;-71
2023/06/26 03:40:47;;;;;;;;;;;;;;;17.58;100.00;99814.03;6376355;27;19927;-71
2023/06/26 03:43:48;;;;;;;;;;;;;;;17.66;99.72;99808.84;6374953;27;19919;-71
2023/06/26 03:46:51;;;;;;;;;;;;;;;17.72;100.00;99813.56;6375173;27;20398;-71
2023/06/26 03:49:51;;;;;;;;;;;;;;;17.66;100.00;99822.06;6374781;27;20324;-71
2023/06/26 03:52:54;;;;;;;;;;;;;;;17.65;100.00;99817.78;6374595;27;19923;-71
2023/06/26 03:55:54;;;;;;;;;;;;;;;17.75;98.97;99819.53;6373952;27;19923;-71
2023/06/26 03:58:55;;;;;;;;;;;;;;;17.80;98.92;99827.84;6375022;27;19919;-71
2023/06/26 04:01:56;;;;;;;;;;;;;;;17.85;99.31;99822.97;6376182;27;19920;-71
2023/06/26 04:04:56;;;;;;;;;;;;;;;17.99;97.59;99829.59;6410224;27;19919;-71
2023/06/26 04:07:57;;;;;;;;;;;;;;;18.06;96.72;99831.50;6375303;27;19926;-71
2023/06/26 04:10:58;;;;;;;;;;;;;;;18.07;97.32;99824.41;6376395;27;20015;-71
2023/06/26 04:14:02;;;;;;;;;;;;;;;18.25;96.46;99824.44;6375325;27;19919;-71
2023/06/26 04:17:03;;;;;;;;;;;;;;;18.40;95.96;99817.66;6376202;27;19919;-71
2023/06/26 04:20:07;;;;;;;;;;;;;;;18.46;95.47;99826.81;6375972;27;19919;-71
2023/06/26 04:23:07;;;;;;;;;;;;;;;18.51;95.45;99828.03;6376063;27;20363;-71
2023/06/26 04:26:08;;;;;;;;;;;;;;;18.60;96.35;99830.75;6374901;27;19919;-71
2023/06/26 04:29:09;;;;;;;;;;;;;;;18.78;95.68;99831.56;6375906;27;19923;-70
2023/06/26 04:32:10;;;;;;;;;;;;;;;18.81;95.39;99820.72;6376097;27;19923;-71
2023/06/26 04:35:12;;;;;;;;;;;;;;;18.99;95.49;99822.53;6375797;27;19930;-71
2023/06/26 04:38:13;;;;;;;;;;;;;;;19.10;94.84;99820.44;6374746;27;19919;-71
2023/06/26 04:41:14;;;;;;;;;;;;;;;19.23;94.15;99822.69;6374530;27;20332;-71
2023/06/26 04:44:15;;;;;;;;;;;;;;;19.40;94.56;99817.50;6375623;27;19919;-71
2023/06/26 04:47:15;;;;;;;;;;;;;;;19.49;92.79;99822.66;6375527;27;19964;-71
2023/06/26 04:50:19;;;;;;;;;;;;;;;19.60;91.49;99826.88;6375165;27;20370;-71
2023/06/26 04:53:23;;;;;;;;;;;;;;;19.81;89.24;99821.22;6374572;27;20007;-71
2023/06/26 04:56:23;;;;;;;;;;;;;;;19.87;88.24;99822.38;6374095;27;19926;-71
2023/06/26 04:59:24;;;;;;;;;;;;;;;20.12;85.45;99820.69;6375596;27;20363;-71
2023/06/26 05:02:26;;;;;;;;;;;;;;;20.27;86.14;99816.41;6373312;27;19926;-71
2023/06/26 05:05:28;;;;;;;;;;;;;;;20.46;84.86;99817.09;6374228;27;19962;-71
2023/06/26 05:08:28;;;;;;;;;;;;;;;20.42;82.95;99819.25;6375199;27;19920;-70
2023/06/26 05:11:29;;;;;;;;;;;;;;;20.58;82.01;99820.28;6373936;27;19919;-71
2023/06/26 05:14:29;;;;;;;;;;;;;;;20.74;80.57;99822.97;6374960;27;20000;-71
2023/06/26 05:17:30;;;;;;;;;;;;;;;20.92;80.59;99833.41;6374885;27;19923;-71
2023/06/26 05:20:30;;;;;;;;;;;;;;;21.03;77.65;99826.94;6373470;27;19920;-71
2023/06/26 05:23:32;;;;;;;;;;;;;;;21.18;77.83;99827.91;6373136;27;20355;-71
2023/06/26 05:26:35;;;;;;;;;;;;;;;21.32;78.35;99826.41;6373257;27;20010;-71
2023/06/26 05:29:35;;;;;;;;;;;;;;;21.42;78.56;99836.84;6373294;27;19923;-71
2023/06/26 05:32:37;;;;;;;;;;;;;;;21.61;77.41;99836.47;6373523;27;19991;-71
2023/06/26 05:35:37;;;;;;;;;;;;;;;21.79;76.10;99830.97;6373102;27;20359;-71
2023/06/26 05:38:38;;;;;;;;;;;;;;;21.90;75.21;99841.19;6374238;27;19972;-71
2023/06/26 05:41:39;;;;;;;;;;;;;;;21.87;73.61;99848.69;6373247;27;19919;-71
2023/06/26 05:44:39;;;;;;;;;;;;;;;22.12;75.38;99841.44;6373986;27;20460;-71
2023/06/26 05:47:40;;;;;;;;;;;;;;;22.16;76.44;99836.63;6374102;27;19927;-71
2023/06/26 05:50:42;;;;;;;;;;;;;;;22.35;73.40;99832.72;6373050;27;19973;-71
2023/06/26 05:53:43;;;;;;;;;;;;;;;22.42;72.55;99829.16;6408198;27;19923;-71
2023/06/26 05:56:45;;;;;;;;;;;;;;;22.69;71.67;99838.47;6373720;27;19924;-71
2023/06/26 05:59:46;;;;;;;;;;;;;;;22.76;71.65;99835.91;6373410;27;19942;-71
2023/06/26 06:02:47;;;;;;;;;;;;;;;23.01;70.46;99836.56;6373795;27;19925;-71
2023/06/26 06:05:47;;;;;;;;;;;;;;;22.91;69.86;99828.81;6373978;27;20333;-71
2023/06/26 06:08:48;;;;;;;;;;;;;;;22.96;69.44;99830.94;6373691;27;19966;-71
2023/06/26 06:11:48;;;;;;;;;;;;;;;23.18;69.50;99833.75;6373592;27;19919;-72
2023/06/26 06:15:02;;;;;;;;;;;;;;;23.27;68.76;99835.34;6372078;27;19923;-72
2023/06/26 06:18:06;;;;;;;;;;;;;;;23.25;66.59;99824.06;6371714;27;19919;-71
2023/06/26 06:21:06;;;;;;;;;;;;;;;23.20;67.39;99831.75;6371775;28;19965;-71
2023/06/26 06:24:07;;;;;;;;;;;;;;;23.32;67.42;99831.13;6406238;27;19920;-71
2023/06/26 06:27:07;;;;;;;;;;;;;;;23.30;66.63;99829.66;6372792;28;19919;-71
2023/06/26 06:30:08;;;;;;;;;;;;;;;23.44;65.78;99836.00;6371425;28;19926;-71
2023/06/26 06:33:09;;;;;;;;;;;;;;;23.68;65.03;99830.41;6372954;27;20351;-71
2023/06/26 06:36:10;;;;;;;;;;;;;;;23.83;65.55;99827.75;6371442;28;19923;-71
2023/06/26 06:39:10;;;;;;;;;;;;;;;24.00;65.18;99832.88;6371651;28;19975;-71
2023/06/26 06:42:11;;;;;;;;;;;;;;;24.24;65.60;99832.56;6372644;28;19949;-71
2023/06/26 06:45:11;;;;;;;;;;;;;;;24.26;66.06;99830.53;6371396;28;19980;-71
2023/06/26 06:48:14;;;;;;;;;;;;;;;24.24;63.10;99829.91;6371363;28;19951;-71
2023/06/26 06:51:15;;;;;;;;;;;;;;;24.50;64.15;99837.41;6372444;27;19920;-71
2023/06/26 06:54:16;;;;;;;;;;;;;;;24.55;63.22;99828.81;6371554;28;19919;-71
2023/06/26 06:57:17;;;;;;;;;;;;;;;24.73;62.79;99831.06;6372322;27;19950;-71
2023/06/26 07:00:18;;;;;;;;;;;;;;;24.79;60.77;99829.44;6372567;28;19951;-71
2023/06/26 07:03:18;;;;;;;;;;;;;;;24.79;62.97;99830.28;6372175;28;20022;-71
2023/06/26 07:06:19;;;;;;;;;;;;;;;24.85;63.47;99831.34;6372452;28;19927;-71
2023/06/26 07:09:20;;;;;;;;;;;;;;;24.96;63.22;99836.16;6372223;28;19980;-71
2023/06/26 07:12:21;;;;;;;;;;;;;;;24.98;63.45;99826.13;6372551;27;19919;-71
2023/06/26 07:15:21;;;;;;;;;;;;;;;24.70;64.37;99834.91;6371286;28;19919;-71
2023/06/26 07:18:22;;;;;;;;;;;;;;;25.21;62.16;99833.13;6372113;27;19926;-71
2023/06/26 07:21:22;;;;;;;;;;;;;;;25.42;60.74;99829.56;6372438;28;20011;-71
2023/06/26 07:24:23;;;;;;;;;;;;;;;25.66;60.52;99833.59;6370858;28;19926;-71
2023/06/26 07:27:24;;;;;;;;;;;;;;;25.87;56.11;99832.66;6372020;27;19955;-72
2023/06/26 07:30:24;;;;;;;;;;;;;;;26.24;58.18;99836.75;6376528;27;20367;-71
2023/06/26 07:33:25;;;;;;;;;;;;;;;26.26;56.88;99833.88;6376466;27;19942;-72
2023/06/26 07:36:25;;;;;;;;;;;;;;;26.57;57.28;99836.03;6376511;27;20420;-71
2023/06/26 07:39:26;;;;;;;;;;;;;;;26.28;57.12;99839.84;6375376;27;20005;-72
2023/06/26 07:42:27;;;;;;;;;;;;;;;26.23;56.50;99844.97;6375069;27;19926;-71
2023/06/26 07:45:27;;;;;;;;;;;;;;;26.21;56.02;99847.84;6376255;27;19919;-72
2023/06/26 07:48:28;;;;;;;;;;;;;;;26.03;56.81;99845.72;6374953;27;20355;-72
2023/06/26 07:51:28;;;;;;;;;;;;;;;25.84;55.81;99844.59;6374894;27;19926;-70
2023/06/26 07:54:29;;;;;;;;;;;;;;;26.42;55.93;99844.22;6374783;27;19919;-71
2023/06/26 07:57:32;;;;;;;;;;;;;;;26.78;52.51;99844.91;6376029;27;19924;-71
2023/06/26 08:00:32;;;;;;;;;;;;;;;26.83;55.44;99853.13;6374847;27;20035;-71
2023/06/26 08:03:33;;;;;;;;;;;;;;;26.89;52.60;99850.50;6375755;27;19983;-71
2023/06/26 08:06:33;;;;;;;;;;;;;;;26.97;51.18;99848.63;6376074;27;19977;-71
2023/06/26 08:09:34;;;;;;;;;;;;;;;27.33;51.87;99848.22;6374412;27;19965;-72
2023/06/26 08:12:36;;;;;;;;;;;;;;;27.60;53.80;99845.50;6409109;27;19927;-71
2023/06/26 08:15:37;;;;;;;;;;;;;;;27.52;54.67;99849.22;6374449;27;19926;-71
2023/06/26 08:18:37;;;;;;;;;;;;;;;27.52;52.80;99847.34;6374114;27;19919;-72
2023/06/26 08:21:39;;;;;;;;;;;;;;;27.87;49.87;99849.75;6375545;27;20275;-71
2023/06/26 08:24:39;;;;;;;;;;;;;;;27.95;51.14;99842.53;6374165;27;19919;-71
2023/06/26 08:27:40;;;;;;;;;;;;;;;27.76;51.05;99850.41;6374343;27;20342;-71
2023/06/26 08:30:40;;;;;;;;;;;;;;;28.27;48.79;99843.41;6374958;27;20358;-71
2023/06/26 08:33:41;;;;;;;;;;;;;;;28.33;48.66;99846.06;6375460;27;20371;-72
2023/06/26 08:36:44;;;;;;;;;;;;;;;28.44;48.91;99854.47;6375018;27;20282;-72
2023/06/26 08:39:45;;;;;;;;;;;;;;;28.33;48.15;99850.59;6374580;27;19923;-71
2023/06/26 08:42:46;;;;;;;;;;;;;;;28.21;48.81;99847.78;6375042;27;19971;-72
2023/06/26 08:45:51;;;;;;;;;;;;;;;27.95;49.04;99840.66;6373558;27;20329;-72
2023/06/26 08:48:56;;;;;;;;;;;;;;;28.20;51.09;99848.00;6373293;27;20018;-71
2023/06/26 08:52:00;;;;;;;;;;;;;;;27.61;49.78;99845.28;6373466;27;19927;-71
2023/06/26 08:55:02;;;;;;;;;;;;;;;27.74;50.93;99839.06;6374824;27;19923;-71
2023/06/26 08:58:03;;;;;;;;;;;;;;;27.50;48.94;99851.28;6373292;27;19942;-71
2023/06/26 09:01:04;;;;;;;;;;;;;;;27.66;48.57;99848.16;6373473;27;19973;-71
2023/06/26 09:04:05;;;;;;;;;;;;;;;27.83;48.99;99853.06;6373238;27;19919;-71
2023/06/26 09:07:06;;;;;;;;;;;;;;;28.01;49.91;99850.53;6374302;27;19919;-72
2023/06/26 09:10:07;;;;;;;;;;;;;;;28.34;48.88;99852.25;6373110;27;19962;-71
2023/06/26 09:13:08;;;;;;;;;;;;;;;28.17;47.51;99845.72;6373038;27;19983;-71
2023/06/26 09:16:09;;;;;;;;;;;;;;;28.32;47.94;99847.09;6373077;27;19919;-71
2023/06/26 09:19:11;;;;;;;;;;;;;;;29.05;47.76;99848.47;6372806;27;19961;-71
2023/06/26 09:22:14;;;;;;;;;;;;;;;28.83;47.87;99845.34;6374126;27;19926;-71
2023/06/26 09:25:14;;;;;;;;;;;;;;;28.13;50.10;99848.84;6373956;27;19919;-71
2023/06/26 09:28:15;;;;;;;;;;;;;;;27.16;48.95;99853.16;6372865;27;20295;-71
2023/06/26 09:31:16;;;;;;;;;;;;;;;27.87;49.68;99849.75;6373650;27;19919;-71
2023/06/26 09:34:17;;;;;;;;;;;;;;;28.57;47.02;99850.91;6374015;27;19965;-71
2023/06/26 09:37:18;;;;;;;;;;;;;;;28.10;46.64;99843.88;6373555;27;19919;-71
2023/06/26 09:40:21;;;;;;;;;;;;;;;27.79;48.33;99844.59;6372401;27;20383;-72
2023/06/26 09:43:22;;;;;;;;;;;;;;;28.59;47.38;99841.59;6372219;27;19925;-71
2023/06/26 09:46:23;;;;;;;;;;;;;;;28.93;46.09;99845.69;6373290;27;19926;-71
2023/06/26 09:49:24;;;;;;;;;;;;;;;28.69;46.10;99850.00;6371969;27;20282;-71
2023/06/26 09:52:26;;;;;;;;;;;;;;;29.70;44.46;99845.41;6373140;27;19926;-71
2023/06/26 09:55:26;;;;;;;;;;;;;;;29.10;41.58;99854.03;6373483;27;19992;-71
2023/06/26 09:58:27;;;;;;;;;;;;;;;28.98;42.62;99844.22;6373482;27;19919;-71
2023/06/26 10:01:29;;;;;;;;;;;;;;;29.69;43.84;99846.44;6371805;27;20390;-72
2023/06/26 10:04:29;;;;;;;;;;;;;;;29.03;42.77;99852.41;6371926;27;19920;-71
2023/06/26 10:07:30;;;;;;;;;;;;;;;29.21;41.56;99847.13;6372985;27;20393;-72
2023/06/26 10:10:32;;;;;;;;;;;;;;;30.26;46.34;99839.97;6372906;27;19923;-70
2023/06/26 10:13:39;;;;;;;;;;;;;;;31.07;40.79;99846.66;6371734;27;19972;-71
2023/06/26 10:16:41;;;;;;;;;;;;;;;29.81;40.37;99840.31;6372915;27;20382;-71
2023/06/26 10:19:46;;;;;;;;;;;;;;;29.82;41.89;99847.38;6372796;27;19963;-71
2023/06/26 10:22:47;;;;;;;;;;;;;;;29.51;40.15;99844.56;6371928;28;20006;-71
2023/06/26 10:25:51;;;;;;;;;;;;;;;29.91;38.37;99846.00;6371461;28;19920;-71
2023/06/26 10:28:53;;;;;;;;;;;;;;;30.41;39.73;99840.38;6372853;27;20026;-72
2023/06/26 10:31:58;;;;;;;;;;;;;;;31.38;41.44;99839.28;6371423;28;20370;-71
2023/06/26 10:35:06;;;;;;;;;;;;;;;31.88;37.12;99833.34;6372653;27;19985;-71
2023/06/26 10:38:09;;;;;;;;;;;;;;;30.46;39.13;99839.72;6372676;27;19992;-71
2023/06/26 10:41:12;;;;;;;;;;;;;;;30.07;39.05;99834.63;6371531;28;19920;-71
2023/06/26 10:44:16;;;;;;;;;;;;;;;30.22;41.50;99836.91;6371264;28;20370;-71
2023/06/26 10:47:33;;;;;;;;;;;;;;;29.54;40.34;99827.16;6371570;28;19920;-71
2023/06/26 10:50:37;;;;;;;;;;;;;;;29.26;40.15;99831.19;6370987;28;20443;-72
2023/06/26 10:53:37;;;;;;;;;;;;;;;28.71;41.55;99828.31;6405986;27;19972;-72
2023/06/26 10:56:42;;;;;;;;;;;;;;;28.69;43.14;99833.06;6372427;27;19966;-72
2023/06/26 10:59:42;;;;;;;;;;;;;;;28.41;40.86;99822.69;6372313;27;19926;-72
2023/06/26 11:02:50;;;;;;;;;;;;;;;28.11;39.46;99829.47;6404778;27;20374;-71
2023/06/26 11:06:08;;;;;;;;;;;;;;;27.82;43.54;99827.28;6376528;27;19919;-71
2023/06/26 11:09:13;;;;;;;;;;;;;;;28.11;44.68;99825.97;6375471;27;19927;-72
2023/06/26 11:12:14;;;;;;;;;;;;;;;27.57;47.52;99827.16;6376762;27;19919;-71
2023/06/26 11:15:15;;;;;;;;;;;;;;;27.91;46.98;99826.84;6376925;27;20375;-71
2023/06/26 11:18:16;;;;;;;;;;;;;;;27.48;47.17;99827.38;6376999;27;19981;-70
2023/06/26 11:21:21;;;;;;;;;;;;;;;27.62;48.47;99824.69;6375492;27;19923;-71
2023/06/26 11:24:21;;;;;;;;;;;;;;;27.76;48.15;99826.28;6375358;27;19919;-72
2023/06/26 11:27:24;;;;;;;;;;;;;;;28.10;47.58;99827.81;6375263;27;19926;-71
2023/06/26 11:30:25;;;;;;;;;;;;;;;27.77;47.05;99822.56;6375094;27;19923;-71
2023/06/26 11:33:26;;;;;;;;;;;;;;;28.11;47.21;99831.31;6376259;27;20095;-71
2023/06/26 11:36:27;;;;;;;;;;;;;;;28.36;48.30;99825.22;6372043;27;20029;-71
2023/06/26 11:39:28;;;;;;;;;;;;;;;28.80;47.87;99831.53;6373598;27;19919;-71
2023/06/26 11:42:33;;;;;;;;;;;;;;;28.81;44.62;99825.97;6372782;27;20458;-71
2023/06/26 11:45:34;;;;;;;;;;;;;;;28.43;44.62;99825.97;6372333;27;19927;-71
2023/06/26 11:48:37;;;;;;;;;;;;;;;28.85;45.24;99827.16;6372160;27;19977;-72
2023/06/26 11:51:37;;;;;;;;;;;;;;;28.76;42.66;99822.28;6373275;27;19972;-71
2023/06/26 11:54:39;;;;;;;;;;;;;;;29.91;43.85;99821.78;6373617;27;19919;-71
2023/06/26 11:57:39;;;;;;;;;;;;;;;30.17;40.55;99825.19;6372951;27;19926;-72
2023/06/26 12:00:46;;;;;;;;;;;;;;;29.85;41.00;99817.31;6373353;27;20335;-71
2023/06/26 12:03:46;;;;;;;;;;;;;;;30.33;38.99;99825.41;6371523;27;19920;-71
2023/06/26 12:06:48;;;;;;;;;;;;;;;30.60;41.75;99824.16;6373000;27;20382;-71
2023/06/26 12:09:49;;;;;;;;;;;;;;;29.99;41.14;99817.97;6372695;27;19923;-71
2023/06/26 12:12:50;;;;;;;;;;;;;;;30.41;41.04;99818.03;6372809;27;19998;-71
2023/06/26 12:15:51;;;;;;;;;;;;;;;29.76;38.05;99813.31;6369667;27;20404;-72
2023/06/26 12:18:57;;;;;;;;;;;;;;;29.95;39.97;99817.59;6371825;27;19923;-72
2023/06/26 12:21:58;;;;;;;;;;;;;;;29.86;42.32;99814.41;6371012;27;20002;-72
2023/06/26 12:24:58;;;;;;;;;;;;;;;29.73;40.68;99817.25;6372877;27;19925;-71
2023/06/26 12:27:59;;;;;;;;;;;;;;;29.89;39.71;99815.81;6372849;27;20002;-71
2023/06/26 12:31:15;;;;;;;;;;;;;;;30.23;40.27;99810.81;6372255;27;20190;-71
2023/06/26 12:34:20;;;;;;;;;;;;;;;29.58;37.78;99806.03;6372563;27;19972;-71
2023/06/26 12:37:21;;;;;;;;;;;;;;;30.26;38.57;99802.28;6370641;27;19927;-71
2023/06/26 12:40:22;;;;;;;;;;;;;;;30.83;37.71;99807.25;6372355;27;19926;-71
2023/06/26 12:43:23;;;;;;;;;;;;;;;30.72;36.41;99803.47;6371054;27;20409;-71
2023/06/26 12:46:35;;;;;;;;;;;;;;;30.21;37.19;99804.84;6372357;27;20012;-72
2023/06/26 12:49:35;;;;;;;;;;;;;;;30.61;38.94;99799.72;6370491;27;19958;-71
2023/06/26 12:52:36;;;;;;;;;;;;;;;31.09;41.62;99806.84;6372067;27;19926;-72
2023/06/26 12:55:37;;;;;;;;;;;;;;;31.52;41.29;99794.84;6370591;27;19942;-72
2023/06/26 12:58:37;;;;;;;;;;;;;;;31.76;37.94;99792.09;6371992;27;20009;-71
2023/06/26 13:01:38;;;;;;;;;;;;;;;30.87;35.66;99795.81;6370128;27;19919;-71
2023/06/26 13:04:44;;;;;;;;;;;;;;;31.61;39.37;99783.69;6372053;27;20418;-71
2023/06/26 13:07:44;;;;;;;;;;;;;;;30.70;38.27;99787.56;6370246;27;20435;-71
2023/06/26 13:10:45;;;;;;;;;;;;;;;30.45;40.40;99789.63;6370418;27;20014;-71
2023/06/26 13:13:45;;;;;;;;;;;;;;;30.55;38.55;99783.69;6369925;27;19930;-71
2023/06/26 13:16:46;;;;;;;;;;;;;;;31.33;36.79;99790.63;6369985;27;20335;-72
2023/06/26 13:19:47;;;;;;;;;;;;;;;30.26;38.90;99788.84;6371310;27;19926;-71
2023/06/26 13:22:47;;;;;;;;;;;;;;;29.76;41.10;99791.81;6369832;27;19919;-72
2023/06/26 13:25:48;;;;;;;;;;;;;;;29.50;42.17;99782.97;6369751;27;19962;-72
2023/06/26 13:28:49;;;;;;;;;;;;;;;30.20;41.80;99792.44;6371593;27;20013;-71
2023/06/26 13:31:49;;;;;;;;;;;;;;;30.20;42.34;99787.06;6370907;27;19923;-71
2023/06/26 13:34:50;;;;;;;;;;;;;;;30.44;42.59;99782.59;6371079;27;19927;-71
2023/06/26 13:37:53;;;;;;;;;;;;;;;30.24;40.42;99783.69;6370379;27;20513;-71
2023/06/26 13:40:55;;;;;;;;;;;;;;;29.52;41.82;99784.38;6370812;27;19929;-71
2023/06/26 13:43:55;;;;;;;;;;;;;;;30.28;43.33;99771.41;6369803;27;19923;-71
2023/06/26 13:46:56;;;;;;;;;;;;;;;30.32;40.57;99774.50;6370635;27;20291;-72
2023/06/26 13:49:59;;;;;;;;;;;;;;;30.65;41.29;99775.84;6369203;27;20337;-71
2023/06/26 13:53:00;;;;;;;;;;;;;;;30.77;42.31;99767.78;6370619;27;19930;-71
2023/06/26 13:56:00;;;;;;;;;;;;;;;30.59;40.81;99764.13;6369371;27;19923;-71
2023/06/26 13:59:04;;;;;;;;;;;;;;;30.26;42.14;99759.25;6370633;27;19926;-71
2023/06/26 14:02:06;;;;;;;;;;;;;;;29.71;42.14;99752.97;6370362;27;19926;-71
2023/06/26 14:05:06;;;;;;;;;;;;;;;29.94;41.42;99756.81;6369357;27;19927;-71
2023/06/26 14:08:08;;;;;;;;;;;;;;;30.05;40.32;99752.53;6369153;27;19920;-71
2023/06/26 14:11:10;;;;;;;;;;;;;;;30.25;40.34;99746.81;6368889;27;19970;-72
2023/06/26 14:14:12;;;;;;;;;;;;;;;29.95;41.82;99746.88;6369630;27;19930;-71
2023/06/26 14:17:15;;;;;;;;;;;;;;;29.03;43.08;99739.63;6370058;27;20287;-71
2023/06/26 14:20:16;;;;;;;;;;;;;;;29.16;42.29;99741.38;6369733;27;20371;-71
2023/06/26 14:23:17;;;;;;;;;;;;;;;29.37;41.48;99737.44;6369809;27;19920;-71
2023/06/26 14:26:17;;;;;;;;;;;;;;;29.98;41.50;99744.53;6368806;28;19942;-71
2023/06/26 14:29:20;;;;;;;;;;;;;;;29.87;39.79;99739.94;6368706;28;19924;-71
2023/06/26 14:32:20;;;;;;;;;;;;;;;29.68;41.74;99742.63;6368917;28;19919;-71
2023/06/26 14:35:21;;;;;;;;;;;;;;;29.27;38.96;99741.47;6368640;28;19930;-72
2023/06/26 14:38:21;;;;;;;;;;;;;;;29.67;40.66;99734.78;6371686;27;20002;-72
2023/06/26 14:41:22;;;;;;;;;;;;;;;29.66;39.77;99731.28;6375258;27;20295;-70
2023/06/26 14:44:23;;;;;;;;;;;;;;;29.79;39.00;99730.31;6373491;27;19919;-70
2023/06/26 14:47:23;;;;;;;;;;;;;;;30.15;40.70;99719.69;6373632;27;19984;-71
2023/06/26 14:50:24;;;;;;;;;;;;;;;29.51;39.10;99720.94;6373305;27;19926;-71
2023/06/26 14:53:24;;;;;;;;;;;;;;;29.84;38.42;99724.28;6373835;27;20366;-72
2023/06/26 14:56:25;;;;;;;;;;;;;;;29.99;37.89;99718.47;6374843;27;19931;-70
2023/06/26 14:59:26;;;;;;;;;;;;;;;29.69;36.28;99717.41;6373528;27;20286;-71
2023/06/26 15:02:27;;;;;;;;;;;;;;;29.20;36.02;99705.81;6373201;27;20286;-71
2023/06/26 15:05:27;;;;;;;;;;;;;;;29.13;39.01;99700.47;6373533;27;19923;-71
2023/06/26 15:08:28;;;;;;;;;;;;;;;28.92;36.57;99711.63;6374675;27;20390;-71
2023/06/26 15:11:28;;;;;;;;;;;;;;;29.22;36.52;99703.72;6374176;27;19919;-71
2023/06/26 15:14:29;;;;;;;;;;;;;;;29.18;37.16;99705.19;6373009;27;20443;-71
2023/06/26 15:17:30;;;;;;;;;;;;;;;28.86;36.80;99701.78;6374170;27;19976;-71
2023/06/26 15:20:33;;;;;;;;;;;;;;;29.37;37.11;99705.19;6373097;27;20060;-73
2023/06/26 15:23:34;;;;;;;;;;;;;;;29.03;37.20;99702.84;6373466;27;19923;-71
2023/06/26 15:26:34;;;;;;;;;;;;;;;29.15;38.34;99699.44;6372076;27;20020;-71
2023/06/26 15:29:35;;;;;;;;;;;;;;;29.12;38.49;99700.72;6373670;27;19919;-71
2023/06/26 15:32:35;;;;;;;;;;;;;;;28.98;37.60;99701.88;6372514;27;19923;-70
2023/06/26 15:35:36;;;;;;;;;;;;;;;29.14;38.51;99698.63;6372809;27;19927;-71
2023/06/26 15:38:37;;;;;;;;;;;;;;;28.99;36.72;99700.81;6372229;27;19926;-71
2023/06/26 15:41:37;;;;;;;;;;;;;;;28.94;37.53;99702.31;6373662;27;20488;-71
2023/06/26 15:44:38;;;;;;;;;;;;;;;29.08;37.98;99699.50;6372958;27;19931;-71